Time,TemperatureF,DewpointF,PressureIn,WindDirection,WindDirectionDegrees,WindSpeedMPH,WindSpeedGustMPH,Humidity,HourlyPrecipIn,Conditions,Clouds,dailyrainin,SoftwareType,DateUTC
2013-04-26 06:47:00,40.6,34.7,30.25,NE,45,0.0,1.6,79,0.00,,,0.22,meteobridge,2013-04-26 10:47:00,
2013-04-26 06:52:00,41.7,35.4,30.26,NE,45,0.0,0.0,78,0.00,,,0.22,meteobridge,2013-04-26 10:52:00,
2013-04-26 06:57:00,41.2,34.5,30.26,North,0,1.6,2.2,77,0.04,,,0.26,meteobridge,2013-04-26 10:57:00,
2013-04-26 07:03:00,41.4,34.7,30.27,East,90,0.0,0.0,77,0.04,,,0.26,meteobridge,2013-04-26 11:03:00,
2013-04-26 07:08:00,41.7,35.4,30.27,SW,225,0.7,0.7,78,0.04,,,0.26,meteobridge,2013-04-26 11:08:00,
2013-04-26 07:13:00,42.1,36.0,30.27,SW,225,0.7,0.7,79,0.04,,,0.26,meteobridge,2013-04-26 11:13:00,
2013-04-26 07:18:00,41.7,35.8,30.27,SW,225,0.0,0.0,79,0.04,,,0.26,meteobridge,2013-04-26 11:18:00,
2013-04-26 07:23:00,41.7,36.0,30.27,SW,225,0.7,1.6,80,0.04,,,0.26,meteobridge,2013-04-26 11:23:00,
2013-04-26 07:28:00,41.7,36.7,30.27,SW,225,0.0,1.6,82,0.04,,,0.26,meteobridge,2013-04-26 11:28:00,
2013-04-26 07:34:00,41.7,36.9,30.27,SW,225,0.7,1.6,83,0.04,,,0.26,meteobridge,2013-04-26 11:34:00,
2013-04-26 07:39:00,41.7,36.9,30.27,SW,225,0.7,0.7,83,0.04,,,0.26,meteobridge,2013-04-26 11:39:00,
2013-04-26 07:44:00,41.9,37.4,30.28,West,270,2.2,2.2,84,0.04,,,0.26,meteobridge,2013-04-26 11:44:00,
2013-04-26 07:49:00,42.1,37.6,30.28,West,270,3.1,3.1,84,0.04,,,0.26,meteobridge,2013-04-26 11:49:00,
2013-04-26 07:54:00,42.1,37.6,30.28,West,270,1.6,2.2,84,0.04,,,0.26,meteobridge,2013-04-26 11:54:00,
2013-04-26 07:59:00,42.1,37.6,30.29,West,270,3.1,5.4,84,0.00,,,0.26,meteobridge,2013-04-26 11:59:00,
2013-04-26 08:04:00,42.3,37.8,30.29,West,270,2.2,2.2,84,0.00,,,0.26,meteobridge,2013-04-26 12:04:00,
2013-04-26 08:10:00,42.6,38.1,30.29,West,270,2.2,2.2,84,0.00,,,0.26,meteobridge,2013-04-26 12:10:00,
2013-04-26 08:15:00,43.0,37.9,30.29,West,270,2.2,3.1,82,0.00,,,0.26,meteobridge,2013-04-26 12:15:00,
2013-04-26 08:20:00,43.5,37.8,30.29,NW,315,2.2,3.1,80,0.00,,,0.26,meteobridge,2013-04-26 12:20:00,
2013-04-26 08:25:00,44.2,37.8,30.29,West,270,1.6,2.2,78,0.00,,,0.26,meteobridge,2013-04-26 12:25:00,
2013-04-26 08:30:00,45.5,37.8,30.30,NW,315,3.8,4.5,74,0.00,,,0.26,meteobridge,2013-04-26 12:30:00,
2013-04-26 08:35:00,45.9,36.3,30.30,West,270,3.8,5.4,69,0.00,,,0.26,meteobridge,2013-04-26 12:35:00,
2013-04-26 08:41:00,46.0,34.5,30.30,NW,315,6.0,6.0,64,0.00,,,0.26,meteobridge,2013-04-26 12:41:00,
2013-04-26 08:46:00,46.4,35.2,30.31,West,270,6.9,6.9,65,0.00,,,0.26,meteobridge,2013-04-26 12:46:00,
2013-04-26 08:51:00,46.4,33.6,30.31,West,270,5.4,5.4,61,0.00,,,0.26,meteobridge,2013-04-26 12:51:00,
2013-04-26 08:56:00,46.6,33.1,30.31,West,270,5.4,6.0,59,0.00,,,0.26,meteobridge,2013-04-26 12:56:00,
2013-04-26 09:01:00,46.9,33.8,30.32,NW,315,6.0,6.0,60,0.00,,,0.26,meteobridge,2013-04-26 13:01:00,
2013-04-26 09:06:00,47.8,34.2,30.32,West,270,5.4,5.4,59,0.00,,,0.26,meteobridge,2013-04-26 13:06:00,
2013-04-26 09:12:00,48.2,32.7,30.32,West,270,6.9,6.9,55,0.00,,,0.26,meteobridge,2013-04-26 13:12:00,
2013-04-26 09:17:00,48.2,32.7,30.32,NW,315,5.4,5.4,55,0.00,,,0.26,meteobridge,2013-04-26 13:17:00,
2013-04-26 09:22:00,48.4,32.5,30.33,West,270,6.0,6.9,54,0.00,,,0.26,meteobridge,2013-04-26 13:22:00,
2013-04-26 09:27:00,48.7,33.3,30.33,West,270,4.5,5.4,55,0.00,,,0.26,meteobridge,2013-04-26 13:27:00,
2013-04-26 09:32:00,49.1,33.3,30.33,NW,315,4.5,5.4,54,0.00,,,0.26,meteobridge,2013-04-26 13:32:00,
2013-04-26 09:37:00,49.8,32.0,30.33,West,270,5.4,5.4,50,0.00,,,0.26,meteobridge,2013-04-26 13:37:00,
2013-04-26 09:43:00,49.8,32.4,30.33,West,270,5.4,5.4,51,0.00,,,0.26,meteobridge,2013-04-26 13:43:00,
2013-04-26 09:48:00,50.0,31.1,30.33,West,270,4.5,4.5,48,0.00,,,0.26,meteobridge,2013-04-26 13:48:00,
2013-04-26 09:53:00,50.0,28.9,30.34,NW,315,3.1,3.8,44,0.00,,,0.26,meteobridge,2013-04-26 13:53:00,
2013-04-26 09:58:00,50.0,28.9,30.34,West,270,4.5,6.9,44,0.00,,,0.26,meteobridge,2013-04-26 13:58:00,
2013-04-26 10:03:00,50.9,30.9,30.34,West,270,5.4,5.4,46,0.00,,,0.26,meteobridge,2013-04-26 14:03:00,
2013-04-26 10:08:00,51.1,29.3,30.34,West,270,8.3,8.3,43,0.00,,,0.26,meteobridge,2013-04-26 14:08:00,
2013-04-26 10:14:00,51.1,29.3,30.34,NW,315,6.9,6.9,43,0.00,,,0.26,meteobridge,2013-04-26 14:14:00,
2013-04-26 10:19:00,51.3,29.5,30.35,West,270,5.4,6.9,43,0.00,,,0.26,meteobridge,2013-04-26 14:19:00,
2013-04-26 10:24:00,51.6,30.4,30.35,NW,315,6.0,9.2,44,0.00,,,0.26,meteobridge,2013-04-26 14:24:00,
2013-04-26 10:29:00,51.4,30.2,30.35,West,270,2.2,3.8,44,0.00,,,0.26,meteobridge,2013-04-26 14:29:00,
2013-04-26 10:34:00,51.8,29.5,30.36,NW,315,3.1,6.0,42,0.00,,,0.26,meteobridge,2013-04-26 14:34:00,
2013-04-26 10:39:00,52.0,29.7,30.36,NW,315,4.5,4.5,42,0.00,,,0.26,meteobridge,2013-04-26 14:39:00,
2013-04-26 10:45:00,51.6,29.8,30.36,East,90,2.2,4.5,43,0.00,,,0.26,meteobridge,2013-04-26 14:45:00,
2013-04-26 10:50:00,52.5,30.7,30.36,West,270,3.1,3.1,43,0.00,,,0.26,meteobridge,2013-04-26 14:50:00,
2013-04-26 10:55:00,53.4,30.9,30.36,WNW,293,5.4,5.4,42,0.00,,,0.26,meteobridge,2013-04-26 14:55:00,
2013-04-26 11:00:00,51.8,26.4,30.37,SW,225,2.2,6.9,37,0.00,,,0.26,meteobridge,2013-04-26 15:00:00,
2013-04-26 11:05:00,51.6,27.5,30.37,West,270,4.5,6.0,39,0.00,,,0.26,meteobridge,2013-04-26 15:05:00,
2013-04-26 11:10:00,51.4,28.6,30.37,North,0,3.8,4.5,41,0.00,,,0.26,meteobridge,2013-04-26 15:10:00,
2013-04-26 11:16:00,52.0,27.1,30.37,West,270,8.3,8.3,38,0.00,,,0.26,meteobridge,2013-04-26 15:16:00,
2013-04-26 11:21:00,52.2,27.3,30.37,WSW,248,6.0,6.0,38,0.00,,,0.26,meteobridge,2013-04-26 15:21:00,
2013-04-26 11:26:00,52.2,26.1,30.37,West,270,7.6,12.1,36,0.00,,,0.26,meteobridge,2013-04-26 15:26:00,
2013-04-26 11:31:00,50.9,24.3,30.37,West,270,3.1,3.8,35,0.00,,,0.26,meteobridge,2013-04-26 15:31:00,
2013-04-26 11:36:00,51.8,29.5,30.37,NW,315,6.0,6.0,42,0.00,,,0.26,meteobridge,2013-04-26 15:36:00,
2013-04-26 11:41:00,52.9,32.2,30.38,SW,225,6.9,7.6,45,0.00,,,0.26,meteobridge,2013-04-26 15:41:00,
2013-04-26 11:47:00,51.1,32.5,30.38,SW,225,5.4,5.4,49,0.00,,,0.26,meteobridge,2013-04-26 15:47:00,
2013-04-26 11:52:00,50.9,34.3,30.38,West,270,4.5,6.9,53,0.00,,,0.26,meteobridge,2013-04-26 15:52:00,
2013-04-26 11:57:00,50.9,32.4,30.37,West,270,7.6,9.2,49,0.00,,,0.26,meteobridge,2013-04-26 15:57:00,
2013-04-26 12:02:00,50.2,32.2,30.38,West,270,10.7,10.7,50,0.00,,,0.26,meteobridge,2013-04-26 16:02:00,
2013-04-26 12:07:00,50.7,33.8,30.38,SW,225,5.4,6.0,52,0.00,,,0.26,meteobridge,2013-04-26 16:07:00,
2013-04-26 12:17:00,51.3,34.2,30.38,NW,315,8.3,9.8,52,0.00,,,0.26,meteobridge,2013-04-26 16:17:00,
2013-04-26 12:23:00,52.3,32.2,30.38,WSW,248,4.5,6.9,46,0.00,,,0.26,meteobridge,2013-04-26 16:23:00,
2013-04-26 12:28:00,52.9,31.6,30.38,WNW,293,7.6,8.3,44,0.00,,,0.26,meteobridge,2013-04-26 16:28:00,
2013-04-26 12:33:00,52.9,31.6,30.38,WNW,293,8.3,8.3,44,0.00,,,0.26,meteobridge,2013-04-26 16:33:00,
2013-04-26 12:38:00,52.9,31.6,30.38,SW,225,9.2,9.2,44,0.00,,,0.26,meteobridge,2013-04-26 16:38:00,
2013-04-26 12:43:00,52.3,30.6,30.38,West,270,8.3,8.3,43,0.00,,,0.26,meteobridge,2013-04-26 16:43:00,
2013-04-26 12:49:00,52.7,32.0,30.37,West,270,5.4,7.6,45,0.00,,,0.26,meteobridge,2013-04-26 16:49:00,
2013-04-26 12:54:00,52.9,32.2,30.37,South,180,9.2,9.2,45,0.00,,,0.26,meteobridge,2013-04-26 16:54:00,
2013-04-26 12:59:00,52.5,31.3,30.37,South,180,8.3,8.3,44,0.00,,,0.26,meteobridge,2013-04-26 16:59:00,
2013-04-26 13:04:00,52.3,31.1,30.38,SW,225,6.9,7.6,44,0.00,,,0.26,meteobridge,2013-04-26 17:04:00,
2013-04-26 13:09:00,52.7,32.0,30.37,West,270,7.6,7.6,45,0.00,,,0.26,meteobridge,2013-04-26 17:09:00,
2013-04-26 13:14:00,52.9,32.7,30.38,West,270,6.0,7.6,46,0.00,,,0.26,meteobridge,2013-04-26 17:14:00,
2013-04-26 13:20:00,53.1,31.6,30.37,SW,225,6.9,8.3,44,0.00,,,0.26,meteobridge,2013-04-26 17:20:00,
2013-04-26 13:25:00,53.1,31.6,30.37,NW,315,4.5,6.0,44,0.00,,,0.26,meteobridge,2013-04-26 17:25:00,
2013-04-26 13:30:00,53.2,32.4,30.37,West,270,5.4,5.4,45,0.00,,,0.26,meteobridge,2013-04-26 17:30:00,
2013-04-26 13:35:00,53.4,32.0,30.37,NNW,338,7.6,7.6,44,0.00,,,0.26,meteobridge,2013-04-26 17:35:00,
2013-04-26 13:40:00,53.2,32.4,30.37,NNW,338,8.3,9.8,45,0.00,,,0.26,meteobridge,2013-04-26 17:40:00,
2013-04-26 13:45:00,53.2,32.4,30.37,SW,225,8.3,8.3,45,0.00,,,0.26,meteobridge,2013-04-26 17:45:00,
2013-04-26 13:50:00,53.4,32.0,30.37,SW,225,3.1,7.6,44,0.00,,,0.26,meteobridge,2013-04-26 17:50:00,
2013-04-26 13:56:00,54.0,32.0,30.37,SW,225,8.3,8.3,43,0.00,,,0.26,meteobridge,2013-04-26 17:56:00,
2013-04-26 14:01:00,53.8,31.8,30.37,West,270,7.6,7.6,43,0.00,,,0.26,meteobridge,2013-04-26 18:01:00,
2013-04-26 14:06:00,53.2,31.8,30.37,West,270,3.8,3.8,44,0.00,,,0.26,meteobridge,2013-04-26 18:06:00,
2013-04-26 14:11:00,53.4,32.5,30.38,West,270,5.4,9.2,45,0.00,,,0.26,meteobridge,2013-04-26 18:11:00,
2013-04-26 14:16:00,53.4,32.5,30.37,SW,225,6.9,6.9,45,0.00,,,0.26,meteobridge,2013-04-26 18:16:00,
2013-04-26 14:21:00,53.4,31.5,30.37,SW,225,6.0,6.0,43,0.00,,,0.26,meteobridge,2013-04-26 18:21:00,
2013-04-26 14:27:00,53.4,32.0,30.38,West,270,5.4,7.6,44,0.00,,,0.26,meteobridge,2013-04-26 18:27:00,
2013-04-26 14:32:00,53.4,32.5,30.37,North,0,3.8,8.3,45,0.00,,,0.26,meteobridge,2013-04-26 18:32:00,
2013-04-26 14:37:00,53.6,31.1,30.38,West,270,3.8,6.9,42,0.00,,,0.26,meteobridge,2013-04-26 18:37:00,
2013-04-26 14:42:00,53.8,31.3,30.38,SW,225,6.0,6.0,42,0.00,,,0.26,meteobridge,2013-04-26 18:42:00,
2013-04-26 14:47:00,54.0,32.0,30.38,SW,225,4.5,7.6,43,0.00,,,0.26,meteobridge,2013-04-26 18:47:00,
2013-04-26 17:09:00,59.9,28.4,30.41,NW,315,5.4,5.4,30,0.00,,,0.69,meteobridge,2013-04-26 21:09:00,
2013-04-26 17:14:00,58.8,27.5,30.41,South,180,4.5,5.4,30,0.00,,,0.69,meteobridge,2013-04-26 21:14:00,
2013-04-26 17:20:00,57.0,25.9,30.41,West,270,6.0,11.4,30,0.00,,,0.69,meteobridge,2013-04-26 21:20:00,
2013-04-26 17:25:00,56.1,28.8,30.41,West,270,6.9,6.9,35,0.00,,,0.69,meteobridge,2013-04-26 21:25:00,
2013-04-26 17:30:00,55.9,27.3,30.41,SW,225,5.4,5.4,33,0.00,,,0.69,meteobridge,2013-04-26 21:30:00,
2013-04-26 17:35:00,55.4,28.2,30.41,West,270,3.1,7.6,35,0.00,,,0.69,meteobridge,2013-04-26 21:35:00,
2013-04-26 17:40:00,56.7,28.6,30.41,West,270,7.6,8.3,34,0.00,,,0.69,meteobridge,2013-04-26 21:40:00,
2013-04-26 17:45:00,56.5,28.4,30.41,SW,225,1.6,5.4,34,0.00,,,0.69,meteobridge,2013-04-26 21:45:00,
2013-04-26 17:51:00,59.2,30.0,30.41,SE,135,4.5,4.5,33,0.00,,,0.69,meteobridge,2013-04-26 21:51:00,
2013-04-26 17:56:00,57.4,27.0,30.40,SW,225,9.8,9.8,31,0.00,,,0.69,meteobridge,2013-04-26 21:56:00,
2013-04-26 18:01:00,56.5,29.8,30.41,SW,225,8.3,8.3,36,0.00,,,0.69,meteobridge,2013-04-26 22:01:00,
2013-04-26 18:06:00,55.4,28.2,30.40,SW,225,8.3,8.3,35,0.00,,,0.69,meteobridge,2013-04-26 22:06:00,
2013-04-26 18:11:00,55.9,28.0,30.40,NW,315,5.4,6.0,34,0.00,,,0.69,meteobridge,2013-04-26 22:11:00,
2013-04-26 18:16:00,56.3,28.9,30.41,East,90,9.2,9.2,35,0.00,,,0.69,meteobridge,2013-04-26 22:16:00,
2013-04-26 18:22:00,56.3,28.9,30.40,West,270,4.5,6.0,35,0.00,,,0.69,meteobridge,2013-04-26 22:22:00,
2013-04-26 18:27:00,55.8,28.6,30.41,South,180,8.3,10.7,35,0.00,,,0.69,meteobridge,2013-04-26 22:27:00,
2013-04-26 18:37:00,55.2,28.0,30.40,SW,225,6.9,8.3,35,0.00,,,0.69,meteobridge,2013-04-26 22:37:00,
2013-04-26 18:42:00,55.2,26.6,30.41,South,180,6.9,8.3,33,0.00,,,0.69,meteobridge,2013-04-26 22:42:00,
2013-04-26 18:48:00,55.2,27.3,30.41,SW,225,6.0,6.0,34,0.00,,,0.69,meteobridge,2013-04-26 22:48:00,
2013-04-26 18:58:00,53.8,26.1,30.40,SW,225,4.5,4.5,34,0.00,,,0.69,meteobridge,2013-04-26 22:58:00,
2013-04-26 19:03:00,54.0,27.7,30.40,South,180,5.4,5.4,36,0.00,,,0.69,meteobridge,2013-04-26 23:03:00,
2013-04-26 19:08:00,55.0,26.4,30.40,SSW,203,1.6,2.2,33,0.00,,,0.69,meteobridge,2013-04-26 23:08:00,
2013-04-26 19:13:00,55.0,25.7,30.40,South,180,6.9,6.9,32,0.00,,,0.69,meteobridge,2013-04-26 23:13:00,
2013-04-26 19:23:00,54.1,26.4,30.40,SSE,158,4.5,4.5,34,0.00,,,0.69,meteobridge,2013-04-26 23:23:00,
2013-04-26 19:29:00,53.2,24.8,30.41,South,180,2.2,3.1,33,0.00,,,0.69,meteobridge,2013-04-26 23:29:00,
2013-04-26 19:34:00,52.5,25.7,30.40,SW,225,3.1,3.8,35,0.00,,,0.69,meteobridge,2013-04-26 23:34:00,
2013-04-26 19:39:00,51.8,24.3,30.40,WSW,248,3.1,3.8,34,0.00,,,0.69,meteobridge,2013-04-26 23:39:00,
2013-04-26 19:44:00,51.3,25.2,30.41,SW,225,3.1,3.1,36,0.00,,,0.69,meteobridge,2013-04-26 23:44:00,
2013-04-26 19:49:00,51.1,24.4,30.41,West,270,3.1,3.1,35,0.00,,,0.69,meteobridge,2013-04-26 23:49:00,
2013-04-26 19:55:00,50.9,23.5,30.41,West,270,1.6,2.2,34,0.00,,,0.69,meteobridge,2013-04-26 23:55:00,
2013-04-26 20:00:00,50.7,25.3,30.41,NW,315,0.7,1.6,37,0.00,,,-99.99,meteobridge,2013-04-27 00:00:00,
2013-04-26 20:10:00,49.1,26.4,30.40,East,90,0.7,0.7,41,0.00,,,0.00,meteobridge,2013-04-27 00:10:00,
2013-04-26 20:15:00,48.0,27.7,30.40,East,90,0.7,0.7,45,0.00,,,0.00,meteobridge,2013-04-27 00:15:00,
2013-04-26 20:20:00,47.1,26.8,30.40,SE,135,0.7,0.7,45,0.00,,,0.00,meteobridge,2013-04-27 00:20:00,
2013-04-26 20:26:00,46.2,29.1,30.40,SE,135,0.0,0.7,51,0.00,,,0.00,meteobridge,2013-04-27 00:26:00,
2013-04-26 20:31:00,45.1,29.5,30.40,SE,135,0.0,0.0,54,0.00,,,0.00,meteobridge,2013-04-27 00:31:00,
2013-04-26 20:36:00,44.4,29.7,30.40,SE,135,0.0,0.0,56,0.00,,,0.00,meteobridge,2013-04-27 00:36:00,
2013-04-26 20:41:00,44.2,28.2,30.40,East,90,1.6,1.6,53,0.00,,,0.00,meteobridge,2013-04-27 00:41:00,
2013-04-26 20:46:00,44.8,26.2,30.40,SE,135,3.1,3.1,48,0.00,,,0.00,meteobridge,2013-04-27 00:46:00,
2013-04-26 20:51:00,44.4,30.9,30.40,SW,225,1.6,2.2,59,0.00,,,0.00,meteobridge,2013-04-27 00:51:00,
2013-04-26 20:57:00,43.9,30.0,30.40,SW,225,0.7,0.7,58,0.00,,,0.00,meteobridge,2013-04-27 00:57:00,
2013-04-26 21:02:00,43.0,29.7,30.40,SW,225,0.0,0.0,59,0.00,,,0.00,meteobridge,2013-04-27 01:02:00,
2013-04-26 21:07:00,42.1,30.0,30.40,SW,225,0.0,0.0,62,0.00,,,0.00,meteobridge,2013-04-27 01:07:00,
2013-04-26 21:17:00,41.5,29.8,30.40,SW,225,0.0,0.0,63,0.00,,,0.00,meteobridge,2013-04-27 01:17:00,
2013-04-26 21:22:00,40.8,31.5,30.41,SW,225,0.7,0.7,69,0.00,,,0.00,meteobridge,2013-04-27 01:22:00,
2013-04-26 21:28:00,40.8,33.3,30.40,SW,225,0.0,0.0,74,0.00,,,0.00,meteobridge,2013-04-27 01:28:00,
2013-04-26 21:33:00,40.5,31.8,30.40,SE,135,1.6,1.6,71,0.00,,,0.00,meteobridge,2013-04-27 01:33:00,
2013-04-26 21:38:00,40.6,31.6,30.40,SE,135,1.6,1.6,70,0.00,,,0.00,meteobridge,2013-04-27 01:38:00,
2013-04-26 21:43:00,41.0,30.9,30.39,South,180,2.2,2.2,67,0.00,,,0.00,meteobridge,2013-04-27 01:43:00,
2013-04-26 21:48:00,41.0,29.8,30.39,SE,135,0.7,2.2,64,0.00,,,0.00,meteobridge,2013-04-27 01:48:00,
2013-04-26 21:53:00,40.5,29.7,30.39,NE,45,2.2,2.2,65,0.00,,,0.00,meteobridge,2013-04-27 01:53:00,
2013-04-26 21:59:00,39.9,29.8,30.38,East,90,2.2,3.1,67,0.00,,,0.00,meteobridge,2013-04-27 01:59:00,
2013-04-26 22:04:00,40.3,29.8,30.38,SE,135,3.1,3.1,66,0.00,,,0.00,meteobridge,2013-04-27 02:04:00,
2013-04-26 22:09:00,40.8,29.1,30.38,South,180,3.8,3.8,63,0.00,,,0.00,meteobridge,2013-04-27 02:09:00,
2013-04-26 22:14:00,41.7,28.0,30.38,SE,135,1.6,3.8,58,0.00,,,0.00,meteobridge,2013-04-27 02:14:00,
2013-04-26 22:19:00,41.4,29.7,30.38,East,90,1.6,1.6,63,0.00,,,0.00,meteobridge,2013-04-27 02:19:00,
2013-04-26 22:24:00,40.5,29.7,30.38,ENE,68,1.6,2.2,65,0.00,,,0.00,meteobridge,2013-04-27 02:24:00,
2013-04-26 22:29:00,40.5,29.3,30.37,NE,45,0.7,1.6,64,0.00,,,0.00,meteobridge,2013-04-27 02:29:00,
2013-04-26 22:35:00,40.1,28.6,30.37,NE,45,0.0,0.0,63,0.00,,,0.00,meteobridge,2013-04-27 02:35:00,
2013-04-26 22:40:00,39.2,28.0,30.37,NE,45,0.0,0.0,64,0.00,,,0.00,meteobridge,2013-04-27 02:40:00,
2013-04-26 22:45:00,38.5,28.0,30.37,NE,45,0.0,0.0,66,0.00,,,0.00,meteobridge,2013-04-27 02:45:00,
2013-04-26 22:50:00,37.8,27.5,30.37,NE,45,0.0,0.0,66,0.00,,,0.00,meteobridge,2013-04-27 02:50:00,
2013-04-26 22:55:00,37.4,27.1,30.37,NE,45,0.0,0.0,66,0.00,,,0.00,meteobridge,2013-04-27 02:55:00,
2013-04-26 23:00:00,37.2,25.7,30.37,NE,45,0.0,0.7,63,0.00,,,0.00,meteobridge,2013-04-27 03:00:00,
2013-04-26 23:06:00,37.2,26.6,30.37,SE,135,0.7,0.7,65,0.00,,,0.00,meteobridge,2013-04-27 03:06:00,
2013-04-26 23:11:00,37.4,30.2,30.37,SE,135,0.7,0.7,75,0.00,,,0.00,meteobridge,2013-04-27 03:11:00,
2013-04-26 23:16:00,37.6,31.3,30.37,SW,225,0.7,0.7,78,0.00,,,0.00,meteobridge,2013-04-27 03:16:00,
2013-04-26 23:21:00,37.6,32.0,30.37,SW,225,0.7,0.7,80,0.00,,,0.00,meteobridge,2013-04-27 03:21:00,
2013-04-26 23:26:00,37.4,31.5,30.38,NW,315,0.7,0.7,79,0.00,,,0.00,meteobridge,2013-04-27 03:26:00,
2013-04-26 23:31:00,37.6,31.3,30.37,West,270,0.0,0.7,78,0.00,,,0.00,meteobridge,2013-04-27 03:31:00,
2013-04-26 23:37:00,37.4,30.9,30.37,West,270,0.0,0.0,77,0.00,,,0.00,meteobridge,2013-04-27 03:37:00,
2013-04-26 23:42:00,37.2,29.3,30.37,West,270,0.0,0.7,73,0.00,,,0.00,meteobridge,2013-04-27 03:42:00,
2013-04-26 23:47:00,37.0,29.1,30.37,West,270,0.0,0.0,73,0.00,,,0.00,meteobridge,2013-04-27 03:47:00,
2013-04-26 23:52:00,36.5,28.8,30.37,West,270,0.0,0.0,73,0.00,,,0.00,meteobridge,2013-04-27 03:52:00,
2013-04-26 23:57:00,36.1,28.6,30.37,West,270,0.0,0.0,74,0.00,,,0.00,meteobridge,2013-04-27 03:57:00,